createdAt,value
2019-01-19T00:02:14.463Z,-0.70
2019-01-19T00:05:10.449Z,-0.70
2019-01-19T00:07:44.656Z,-0.80
2019-01-19T00:10:14.484Z,-0.90
2019-01-19T00:12:53.189Z,-0.90
2019-01-19T00:15:23.011Z,-0.90
2019-01-19T00:17:55.652Z,-1.00
2019-01-19T00:20:50.102Z,-0.90
2019-01-19T00:23:26.275Z,-0.90
2019-01-19T00:26:23.170Z,-1.00
2019-01-19T00:28:55.806Z,-0.90
2019-01-19T00:31:34.634Z,-0.90
2019-01-19T00:34:34.165Z,-0.80
2019-01-19T00:37:02.324Z,-0.80
2019-01-19T00:39:32.139Z,-0.80
2019-01-19T00:42:05.000Z,-0.80
2019-01-19T00:44:46.636Z,-0.80
2019-01-19T00:47:28.331Z,-0.80
2019-01-19T00:50:13.003Z,-0.80
2019-01-19T00:52:42.863Z,-0.80
2019-01-19T00:55:15.456Z,-0.80
2019-01-19T00:57:48.266Z,-0.80
2019-01-19T01:00:18.125Z,-0.90
2019-01-19T01:02:56.811Z,-0.90
2019-01-19T01:05:26.635Z,-0.90
2019-01-19T01:08:08.146Z,-0.90
2019-01-19T01:10:37.966Z,-0.90
2019-01-19T01:13:31.999Z,-1.00
2019-01-19T01:16:13.543Z,-1.10
2019-01-19T01:18:55.437Z,-1.10
2019-01-19T01:21:31.499Z,-1.10
2019-01-19T01:24:01.332Z,-1.10
2019-01-19T01:26:46.451Z,-1.20
2019-01-19T01:29:19.228Z,-1.20
2019-01-19T01:32:01.412Z,-1.10
2019-01-19T01:34:46.388Z,-1.10
2019-01-19T01:37:19.040Z,-1.20
2019-01-19T01:40:06.753Z,-1.20
2019-01-19T01:42:48.822Z,-1.20
2019-01-19T01:45:33.971Z,-1.10
2019-01-19T01:48:22.184Z,-1.10
2019-01-19T01:51:09.381Z,-1.00
2019-01-19T01:53:41.720Z,-0.90
2019-01-19T01:56:09.036Z,-0.90
2019-01-19T01:58:44.533Z,-0.80
2019-01-19T02:01:14.372Z,-0.70
2019-01-19T02:03:44.217Z,-0.60
2019-01-19T02:06:17.395Z,-0.50
2019-01-19T02:09:03.878Z,-0.50
2019-01-19T02:11:40.932Z,-0.50
2019-01-19T02:14:31.564Z,-0.50
2019-01-19T02:17:04.147Z,-0.50
2019-01-19T02:19:51.904Z,-0.60
2019-01-19T02:22:42.651Z,-0.60
2019-01-19T02:25:16.826Z,-0.50
2019-01-19T02:27:55.935Z,-0.60
2019-01-19T02:30:45.344Z,-0.50
2019-01-19T02:33:24.094Z,-0.50
2019-01-19T02:36:02.670Z,-0.50
2019-01-19T02:38:58.512Z,-0.40
2019-01-19T02:41:31.244Z,-0.50
2019-01-19T02:44:07.021Z,-0.40
2019-01-19T02:46:42.851Z,-0.30
2019-01-19T02:49:24.684Z,-0.30
2019-01-19T02:52:12.131Z,-0.30
2019-01-19T02:55:15.956Z,-0.30
2019-01-19T02:57:45.774Z,-0.30
2019-01-19T03:00:32.538Z,-0.40
2019-01-19T03:03:08.012Z,-0.50
2019-01-19T03:05:37.920Z,-0.50
2019-01-19T03:08:29.251Z,-0.60
2019-01-19T03:11:20.713Z,-0.60
2019-01-19T03:14:04.634Z,-0.70
2019-01-19T03:16:55.495Z,-0.60
2019-01-19T03:19:55.611Z,-0.60
2019-01-19T03:22:42.327Z,-0.60
2019-01-19T03:25:17.940Z,-0.60
2019-01-19T03:28:39.160Z,-0.70
2019-01-19T03:31:25.934Z,-0.70
2019-01-19T03:34:17.882Z,-0.50
2019-01-19T03:37:16.866Z,-0.50
2019-01-19T03:40:27.796Z,-0.30
2019-01-19T03:43:14.227Z,-0.30
2019-01-19T03:45:52.693Z,-0.20
2019-01-19T03:48:31.678Z,-0.20
2019-01-19T03:51:13.248Z,-0.20
2019-01-19T03:53:46.278Z,-0.20
2019-01-19T03:56:16.120Z,-0.20
2019-01-19T03:59:09.690Z,-0.30
2019-01-19T04:02:00.312Z,-0.30
2019-01-19T04:04:45.379Z,-0.30
2019-01-19T04:07:27.275Z,-0.30
2019-01-19T04:10:02.351Z,-0.30
2019-01-19T04:12:44.380Z,-0.30
2019-01-19T04:15:14.204Z,-0.30
2019-01-19T04:17:48.146Z,-0.30
2019-01-19T04:20:35.944Z,-0.30
2019-01-19T04:23:02.779Z,-0.30
2019-01-19T04:25:32.601Z,-0.20
2019-01-19T04:28:00.533Z,-0.10
2019-01-19T04:30:26.569Z,-0.20
2019-01-19T04:32:52.599Z,-0.20
2019-01-19T04:35:18.615Z,-0.20
2019-01-19T04:37:44.640Z,-0.20
2019-01-19T04:40:11.199Z,-0.30
2019-01-19T04:42:38.140Z,-0.30
2019-01-19T04:45:04.964Z,-0.30
2019-01-19T04:47:31.007Z,-0.30
2019-01-19T04:49:57.020Z,-0.30
2019-01-19T04:52:23.035Z,-0.40
2019-01-19T04:54:49.082Z,-0.50
2019-01-19T04:57:15.191Z,-0.50
2019-01-19T04:59:41.264Z,-0.40
2019-01-19T05:02:07.277Z,-0.30
2019-01-19T05:04:33.296Z,-0.30
2019-01-19T05:06:59.442Z,-0.30
2019-01-19T05:09:25.463Z,-0.30
2019-01-19T05:11:51.479Z,-0.30
2019-01-19T05:14:17.511Z,-0.20
2019-01-19T05:16:43.671Z,-0.30
2019-01-19T05:19:09.701Z,-0.30
2019-01-19T05:21:35.839Z,-0.20
2019-01-19T05:24:01.871Z,-0.30
2019-01-19T05:26:27.876Z,-0.20
2019-01-19T05:28:53.908Z,-0.20
2019-01-19T05:31:19.924Z,-0.20
2019-01-19T05:33:45.975Z,-0.20
2019-01-19T05:36:12.010Z,-0.20
2019-01-19T05:38:38.024Z,-0.20
2019-01-19T05:41:04.057Z,-0.20
2019-01-19T05:43:31.148Z,-0.20
2019-01-19T05:45:57.211Z,-0.20
2019-01-19T05:48:23.316Z,-0.20
2019-01-19T05:50:49.327Z,-0.20
2019-01-19T05:53:15.360Z,-0.20
2019-01-19T05:55:41.460Z,-0.20
2019-01-19T05:58:07.491Z,-0.20
2019-01-19T06:00:33.907Z,-0.20
2019-01-19T06:02:59.947Z,-0.30
2019-01-19T06:05:25.963Z,-0.30
2019-01-19T06:07:52.087Z,-0.30
2019-01-19T06:10:18.117Z,-0.30
2019-01-19T06:12:44.138Z,-0.30
2019-01-19T06:15:31.940Z,-0.30
2019-01-19T06:17:57.976Z,-0.40
2019-01-19T06:20:24.107Z,-0.50
2019-01-19T06:22:50.159Z,-0.50
2019-01-19T06:25:16.284Z,-0.50
2019-01-19T06:27:42.471Z,-0.50
2019-01-19T06:30:11.915Z,-0.60
2019-01-19T06:32:37.932Z,-0.60
2019-01-19T06:35:06.354Z,-0.70
2019-01-19T06:37:32.383Z,-0.70
2019-01-19T06:39:58.392Z,-0.70
2019-01-19T06:42:24.428Z,-0.70
2019-01-19T06:44:50.435Z,-0.60
2019-01-19T06:47:16.492Z,-0.60
2019-01-19T06:49:42.509Z,-0.60
2019-01-19T06:52:08.571Z,-0.50
2019-01-19T06:54:34.580Z,-0.50
2019-01-19T06:57:00.599Z,-0.50
2019-01-19T06:59:26.768Z,-0.60
2019-01-19T07:01:52.788Z,-0.60
2019-01-19T07:04:18.822Z,-0.60
2019-01-19T07:06:44.839Z,-0.60
2019-01-19T07:09:10.876Z,-0.70
2019-01-19T07:11:37.215Z,-0.60
2019-01-19T07:14:03.231Z,-0.60
2019-01-19T07:16:29.272Z,-0.50
2019-01-19T07:19:15.187Z,-0.60
2019-01-19T07:21:41.221Z,-0.50
2019-01-19T07:24:07.284Z,-0.60
2019-01-19T07:26:33.311Z,-0.70
2019-01-19T07:28:59.328Z,-0.70
2019-01-19T07:31:25.393Z,-0.70
2019-01-19T07:33:54.188Z,-0.70
2019-01-19T07:36:20.212Z,-0.70
2019-01-19T07:38:46.254Z,-0.60
2019-01-19T07:41:12.276Z,-0.60
2019-01-19T07:43:38.428Z,-0.50
2019-01-19T07:46:05.964Z,-0.50
2019-01-19T07:48:32.002Z,-0.50
2019-01-19T07:50:58.047Z,-0.50
2019-01-19T07:53:24.068Z,-0.50
2019-01-19T07:55:50.083Z,-0.50
2019-01-19T07:58:16.145Z,-0.50
2019-01-19T08:00:42.256Z,-0.50
2019-01-19T08:03:08.295Z,-0.50
2019-01-19T08:05:34.308Z,-0.50
2019-01-19T08:08:00.356Z,-0.50
2019-01-19T08:10:26.411Z,-0.50
2019-01-19T08:12:52.428Z,-0.50
2019-01-19T08:15:20.996Z,-0.40
2019-01-19T08:17:47.039Z,-0.40
2019-01-19T08:20:13.650Z,-0.40
2019-01-19T08:22:39.707Z,-0.40
2019-01-19T08:25:07.907Z,-0.40
2019-01-19T08:27:33.971Z,-0.40
2019-01-19T08:29:59.992Z,-0.40
2019-01-19T08:32:26.010Z,-0.40
2019-01-19T08:34:52.119Z,-0.40
2019-01-19T08:37:24.310Z,-0.40
2019-01-19T08:39:46.475Z,-0.40
2019-01-19T08:42:12.516Z,-0.40
2019-01-19T08:44:38.536Z,-0.40
2019-01-19T08:47:05.683Z,-0.30
2019-01-19T08:49:31.727Z,-0.30
2019-01-19T08:51:57.761Z,-0.10
2019-01-19T08:54:23.788Z,0.00
2019-01-19T08:56:49.828Z,0.10
2019-01-19T08:59:15.861Z,0.20
2019-01-19T09:01:41.987Z,0.30
2019-01-19T09:04:08.047Z,0.30
2019-01-19T09:06:34.105Z,0.50
2019-01-19T09:09:01.163Z,0.60
2019-01-19T09:11:28.102Z,0.70
2019-01-19T09:13:54.343Z,0.80
2019-01-19T09:16:20.772Z,0.90
2019-01-19T09:18:46.792Z,0.90
2019-01-19T09:21:12.832Z,1.00
2019-01-19T09:23:40.781Z,1.00
2019-01-19T09:26:06.816Z,1.10
2019-01-19T09:28:32.866Z,1.10
2019-01-19T09:30:58.983Z,1.30
2019-01-19T09:33:24.999Z,1.30
2019-01-19T09:35:51.047Z,1.40
2019-01-19T09:38:17.059Z,1.40
2019-01-19T09:40:43.104Z,1.50
2019-01-19T09:43:09.193Z,1.60
2019-01-19T09:45:35.216Z,1.60
2019-01-19T09:48:01.271Z,1.70
2019-01-19T09:50:27.342Z,1.70
2019-01-19T09:52:53.398Z,1.80
2019-01-19T09:55:19.444Z,1.90
2019-01-19T09:57:45.485Z,2.00
2019-01-19T10:00:14.928Z,2.00
2019-01-19T10:02:40.989Z,2.10
2019-01-19T10:05:10.645Z,2.10
2019-01-19T10:07:36.710Z,2.10
2019-01-19T10:10:06.556Z,2.10
2019-01-19T10:12:32.596Z,2.20
2019-01-19T10:14:58.619Z,2.20
2019-01-19T10:17:24.736Z,2.30
2019-01-19T10:19:50.791Z,2.40
2019-01-19T10:22:16.929Z,2.40
2019-01-19T10:24:42.958Z,2.50
2019-01-19T10:27:08.995Z,2.60
2019-01-19T10:29:35.020Z,2.60
2019-01-19T10:32:01.064Z,2.70
2019-01-19T10:34:28.120Z,2.70
2019-01-19T10:36:54.139Z,2.80
2019-01-19T10:39:20.184Z,2.90
2019-01-19T10:41:46.222Z,3.00
2019-01-19T10:44:12.268Z,3.00
2019-01-19T10:46:38.319Z,3.10
2019-01-19T10:49:04.367Z,3.10
2019-01-19T10:51:31.136Z,3.20
2019-01-19T10:53:57.321Z,3.20
2019-01-19T10:56:23.499Z,3.20
2019-01-19T10:58:49.520Z,3.30
2019-01-19T11:01:15.629Z,3.40
2019-01-19T11:03:41.692Z,3.40
2019-01-19T11:06:07.759Z,3.40
2019-01-19T11:08:33.772Z,3.50
2019-01-19T11:10:59.842Z,3.50
2019-01-19T11:13:25.872Z,3.60
2019-01-19T11:15:51.935Z,3.60
2019-01-19T11:18:17.951Z,3.70
2019-01-19T11:20:44.000Z,3.70
2019-01-19T11:23:10.032Z,3.80
2019-01-19T11:25:36.080Z,3.90
2019-01-19T11:28:02.111Z,3.90
2019-01-19T11:30:30.157Z,3.90
2019-01-19T11:32:56.175Z,3.90
2019-01-19T11:35:22.228Z,3.90
2019-01-19T11:37:48.317Z,4.00
2019-01-19T11:40:17.521Z,4.00
2019-01-19T11:42:43.555Z,4.00
2019-01-19T11:47:51.582Z,4.00
2019-01-19T11:50:17.616Z,4.10
2019-01-19T11:52:43.645Z,4.10
2019-01-19T11:55:17.451Z,4.10
2019-01-19T11:57:43.593Z,4.00
2019-01-19T12:00:18.051Z,4.10
2019-01-19T12:02:44.079Z,4.20
2019-01-19T12:05:10.126Z,4.20
2019-01-19T12:07:36.266Z,4.20
2019-01-19T12:10:06.131Z,4.30
2019-01-19T12:12:32.156Z,4.30
2019-01-19T12:14:58.254Z,4.30
2019-01-19T12:17:24.287Z,4.30
2019-01-19T12:19:53.786Z,4.30
2019-01-19T12:22:19.827Z,4.30
2019-01-19T12:24:45.871Z,4.30
2019-01-19T12:27:11.903Z,4.40
2019-01-19T12:29:37.945Z,4.40
2019-01-19T12:32:03.964Z,4.40
2019-01-19T12:34:30.004Z,4.40
2019-01-19T12:36:56.018Z,4.40
2019-01-19T12:39:22.076Z,4.50
2019-01-19T12:41:48.123Z,4.50
2019-01-19T12:44:14.181Z,4.50
2019-01-19T12:46:40.220Z,4.50
2019-01-19T12:49:06.263Z,4.50
2019-01-19T12:51:32.296Z,4.60
2019-01-19T12:53:58.339Z,4.50
2019-01-19T12:56:24.355Z,4.50
2019-01-19T12:58:50.398Z,4.60
2019-01-19T13:01:16.414Z,4.60
2019-01-19T13:03:42.491Z,4.70
2019-01-19T13:06:21.564Z,4.70
2019-01-19T13:08:47.705Z,4.60
2019-01-19T13:11:35.527Z,4.60
2019-01-19T13:14:03.375Z,4.60
2019-01-19T13:16:51.196Z,4.50
2019-01-19T13:19:21.053Z,4.50
2019-01-19T13:21:56.747Z,4.50
2019-01-19T13:24:32.572Z,4.60
2019-01-19T13:27:14.737Z,4.50
2019-01-19T13:29:56.124Z,4.50
2019-01-19T13:32:25.995Z,4.50
2019-01-19T13:35:01.821Z,4.50
2019-01-19T13:37:34.400Z,4.50
2019-01-19T13:40:21.148Z,4.50
2019-01-19T13:42:50.981Z,4.50
2019-01-19T13:45:23.899Z,4.50
2019-01-19T13:47:59.830Z,4.50
2019-01-19T13:50:44.514Z,4.60
2019-01-19T13:53:17.323Z,4.50
2019-01-19T13:56:07.957Z,4.50
2019-01-19T13:58:47.041Z,4.50
2019-01-19T14:01:19.999Z,4.50
2019-01-19T14:04:00.055Z,4.50
2019-01-19T14:06:42.316Z,4.40
2019-01-19T14:09:27.040Z,4.40
2019-01-19T14:12:39.704Z,4.40
2019-01-19T14:15:15.612Z,4.40
2019-01-19T14:17:45.467Z,4.30
2019-01-19T14:20:30.620Z,4.30
2019-01-19T14:23:32.661Z,4.30
2019-01-19T14:26:29.753Z,4.30
2019-01-19T14:29:14.211Z,4.20
2019-01-19T14:32:11.810Z,4.20
2019-01-19T14:34:58.538Z,4.20
2019-01-19T14:38:02.332Z,4.20
2019-01-19T14:40:54.740Z,4.20
2019-01-19T14:43:24.571Z,4.10
2019-01-19T14:46:15.496Z,4.00
2019-01-19T14:49:03.300Z,4.00
2019-01-19T14:51:38.666Z,4.00
2019-01-19T14:54:31.751Z,4.00
2019-01-19T14:57:22.872Z,4.00
2019-01-19T14:59:55.928Z,3.90
2019-01-19T15:02:49.994Z,3.90
2019-01-19T15:05:28.703Z,3.80
2019-01-19T15:08:10.995Z,3.80
2019-01-19T15:10:47.627Z,3.80
2019-01-19T15:13:29.375Z,3.80
2019-01-19T15:16:08.279Z,3.70
2019-01-19T15:18:41.041Z,3.80
2019-01-19T15:21:10.907Z,3.70
2019-01-19T15:23:52.811Z,3.60
2019-01-19T15:26:37.520Z,3.60
2019-01-19T15:29:28.271Z,3.50
2019-01-19T15:32:21.890Z,3.40
2019-01-19T15:35:00.744Z,3.30
2019-01-19T15:37:42.661Z,3.20
2019-01-19T15:40:27.771Z,3.10
2019-01-19T15:43:03.656Z,3.00
2019-01-19T15:45:39.309Z,2.90
2019-01-19T15:48:14.471Z,2.90
2019-01-19T15:50:50.115Z,2.80
2019-01-19T15:53:42.362Z,2.70
2019-01-19T15:56:47.248Z,2.70
2019-01-19T15:59:29.387Z,2.60
2019-01-19T16:02:01.998Z,2.50
2019-01-19T16:04:34.679Z,2.50
2019-01-19T16:07:25.895Z,2.30
2019-01-19T16:10:01.110Z,2.30
2019-01-19T16:12:45.883Z,2.20
2019-01-19T16:15:23.562Z,2.10
2019-01-19T16:17:56.158Z,2.10
2019-01-19T16:20:41.153Z,2.00
2019-01-19T16:23:16.665Z,2.00
2019-01-19T16:26:06.740Z,1.90
2019-01-19T16:29:02.204Z,1.80
2019-01-19T16:31:41.128Z,1.80
2019-01-19T16:34:13.844Z,1.80
2019-01-19T16:36:52.704Z,1.70
2019-01-19T16:39:41.022Z,1.70
2019-01-19T16:42:16.791Z,1.70
2019-01-19T16:45:07.816Z,1.60
2019-01-19T16:47:43.989Z,1.60
2019-01-19T16:50:39.327Z,1.50
2019-01-19T16:53:35.908Z,1.60
2019-01-19T16:56:22.650Z,1.50
2019-01-19T16:59:16.255Z,1.50
2019-01-19T17:01:57.620Z,1.50
2019-01-19T17:04:27.452Z,1.50
2019-01-19T17:07:03.379Z,1.40
2019-01-19T17:09:45.535Z,1.40
2019-01-19T17:12:15.356Z,1.40
2019-01-19T17:15:32.462Z,1.30
2019-01-19T17:18:20.274Z,1.30
2019-01-19T17:21:06.806Z,1.30
2019-01-19T17:23:57.024Z,1.20
2019-01-19T17:26:52.932Z,1.30
2019-01-19T17:29:25.486Z,1.10
2019-01-19T17:32:01.316Z,1.10
2019-01-19T17:34:37.058Z,1.00
2019-01-19T17:37:13.147Z,1.00
2019-01-19T17:40:05.504Z,1.00
2019-01-19T17:42:50.395Z,1.00
2019-01-19T17:45:27.624Z,0.90
2019-01-19T17:47:57.481Z,0.90
2019-01-19T17:50:27.308Z,0.90
2019-01-19T17:53:24.767Z,0.90
2019-01-19T17:56:21.580Z,0.80
2019-01-19T17:58:51.431Z,0.80
2019-01-19T18:01:42.539Z,0.70
2019-01-19T18:04:20.893Z,0.70
2019-01-19T18:07:06.137Z,0.70
2019-01-19T18:09:35.970Z,0.70
2019-01-19T18:12:11.916Z,0.70
2019-01-19T18:14:56.880Z,0.70
2019-01-19T18:17:37.342Z,0.60
2019-01-19T18:20:28.245Z,0.60
2019-01-19T18:23:17.865Z,0.60
2019-01-19T18:26:08.749Z,0.60
2019-01-19T18:28:51.034Z,0.60
2019-01-19T18:31:26.962Z,0.60
2019-01-19T18:33:59.895Z,0.50
2019-01-19T18:36:38.457Z,0.50
2019-01-19T18:39:23.158Z,0.50
2019-01-19T18:42:20.706Z,0.40
2019-01-19T18:45:13.399Z,0.50
2019-01-19T18:48:18.311Z,0.40
2019-01-19T18:50:48.226Z,0.40
2019-01-19T18:53:45.065Z,0.40
2019-01-19T18:56:29.863Z,0.40
2019-01-19T18:59:17.815Z,0.30
2019-01-19T19:01:47.644Z,0.30
2019-01-19T19:04:29.859Z,0.30
2019-01-19T19:07:14.544Z,0.30
2019-01-19T19:10:11.258Z,0.20
2019-01-19T19:12:46.999Z,0.20
2019-01-19T19:15:34.831Z,0.20
2019-01-19T19:18:27.304Z,0.20
2019-01-19T19:20:57.220Z,0.20
2019-01-19T19:23:48.486Z,0.20
2019-01-19T19:26:44.271Z,0.20
2019-01-19T19:29:19.439Z,0.20
2019-01-19T19:32:10.193Z,0.10
2019-01-19T19:35:31.168Z,0.00
2019-01-19T19:38:32.932Z,0.00
2019-01-19T19:41:39.477Z,0.00
2019-01-19T19:44:38.422Z,0.10
2019-01-19T19:47:42.935Z,0.00
2019-01-19T19:50:24.289Z,-0.10
2019-01-19T19:52:50.336Z,-0.10
2019-01-19T19:55:16.172Z,-0.10
2019-01-19T19:57:42.196Z,0.00
2019-01-19T20:00:15.952Z,-0.10
2019-01-19T20:02:42.006Z,-0.10
2019-01-19T20:05:08.430Z,-0.10
2019-01-19T20:07:34.467Z,-0.10
2019-01-19T20:10:00.503Z,-0.10
2019-01-19T20:12:26.647Z,-0.20
2019-01-19T20:14:52.695Z,-0.20
2019-01-19T20:17:19.152Z,-0.20
2019-01-19T20:19:45.193Z,-0.20
2019-01-19T20:22:11.246Z,-0.20
2019-01-19T20:24:37.263Z,-0.30
2019-01-19T20:27:03.303Z,-0.20
2019-01-19T20:29:29.347Z,-0.20
2019-01-19T20:31:55.399Z,-0.20
2019-01-19T20:34:21.447Z,-0.20
2019-01-19T20:36:47.483Z,-0.30
2019-01-19T20:39:13.508Z,-0.30
2019-01-19T20:41:39.560Z,-0.30
2019-01-19T20:44:05.586Z,-0.30
2019-01-19T20:46:32.667Z,-0.40
2019-01-19T20:48:58.812Z,-0.40
2019-01-19T20:51:24.869Z,-0.40
2019-01-19T20:53:51.101Z,-0.40
2019-01-19T20:56:17.221Z,-0.50
2019-01-19T20:58:43.263Z,-0.50
2019-01-19T21:01:09.312Z,-0.50
2019-01-19T21:03:35.352Z,-0.50
2019-01-19T21:06:01.395Z,-0.60
2019-01-19T21:08:27.411Z,-0.60
2019-01-19T21:10:53.455Z,-0.60
2019-01-19T21:13:19.503Z,-0.70
2019-01-19T21:15:46.567Z,-0.70
2019-01-19T21:18:12.634Z,-0.70
2019-01-19T21:20:38.664Z,-0.70
2019-01-19T21:23:04.703Z,-0.80
2019-01-19T21:25:30.728Z,-0.80
2019-01-19T21:27:56.819Z,-0.80
2019-01-19T21:30:22.844Z,-0.80
2019-01-19T21:32:48.920Z,-0.80
2019-01-19T21:35:14.935Z,-0.80
2019-01-19T21:37:40.964Z,-0.80
2019-01-19T21:40:09.916Z,-0.80
2019-01-19T21:42:41.791Z,-0.80
2019-01-19T21:45:11.144Z,-0.70
2019-01-19T21:47:37.169Z,-0.80
2019-01-19T21:50:05.509Z,-0.80
2019-01-19T21:52:31.543Z,-0.80
2019-01-19T21:54:57.577Z,-0.80
2019-01-19T21:57:23.599Z,-0.80
2019-01-19T21:59:49.651Z,-0.80
2019-01-19T22:02:24.707Z,-0.70
2019-01-19T22:04:50.747Z,-0.70
2019-01-19T22:07:16.767Z,-0.60
2019-01-19T22:09:42.820Z,-0.60
2019-01-19T22:12:11.860Z,-0.50
2019-01-19T22:14:37.876Z,-0.40
2019-01-19T22:17:03.931Z,-0.30
2019-01-19T22:19:30.999Z,-0.20
2019-01-19T22:21:57.033Z,-0.10
2019-01-19T22:24:23.076Z,0.00
2019-01-19T22:26:50.520Z,0.10
2019-01-19T22:29:16.771Z,0.10
2019-01-19T22:31:42.795Z,0.20
2019-01-19T22:34:08.807Z,0.20
2019-01-19T22:36:34.872Z,0.30
2019-01-19T22:39:00.895Z,0.30
2019-01-19T22:41:26.937Z,0.30
2019-01-19T22:43:52.971Z,0.40
2019-01-19T22:46:19.063Z,0.30
2019-01-19T22:48:45.088Z,0.30
2019-01-19T22:51:11.598Z,0.30
2019-01-19T22:53:37.836Z,0.40
2019-01-19T22:56:03.854Z,0.40
2019-01-19T22:58:29.887Z,0.50
2019-01-19T23:01:01.615Z,0.50
2019-01-19T23:03:29.452Z,0.50
2019-01-19T23:05:55.468Z,0.50
2019-01-19T23:08:21.512Z,0.50
2019-01-19T23:10:47.546Z,0.50
2019-01-19T23:13:13.560Z,0.50
2019-01-19T23:15:39.608Z,0.50
2019-01-19T23:18:05.619Z,0.50
2019-01-19T23:20:31.660Z,0.50
2019-01-19T23:22:57.747Z,0.50
2019-01-19T23:25:23.791Z,0.50
2019-01-19T23:27:49.815Z,0.60
2019-01-19T23:30:15.852Z,0.50
2019-01-19T23:32:41.967Z,0.50
2019-01-19T23:35:08.007Z,0.40
2019-01-19T23:37:34.030Z,0.40
2019-01-19T23:40:01.716Z,0.50
2019-01-19T23:42:28.000Z,0.50
2019-01-19T23:44:54.036Z,0.50
2019-01-19T23:47:20.059Z,0.40
2019-01-19T23:49:46.086Z,0.50
2019-01-19T23:52:12.119Z,0.50
2019-01-19T23:54:38.135Z,0.50
2019-01-19T23:57:04.174Z,0.50
2019-01-19T23:59:30.191Z,0.50
